createdAt,value
2019-02-20T05:00:50.167Z,19.77
2019-02-20T05:03:30.050Z,20.57
2019-02-20T05:43:04.269Z,19.60
2019-02-20T05:46:08.154Z,18.30
2019-02-20T08:20:29.150Z,4.20
2019-02-20T08:22:59.776Z,3.63
2019-02-20T08:25:30.350Z,3.17
2019-02-20T08:28:00.825Z,3.17
2019-02-20T08:30:31.377Z,3.60
2019-02-20T08:33:01.906Z,3.17
2019-02-20T08:35:32.377Z,3.00
2019-02-20T08:38:02.916Z,3.23
2019-02-20T08:40:33.521Z,2.57
2019-02-20T08:43:04.057Z,3.10
2019-02-20T08:45:34.643Z,3.30
2019-02-20T08:48:05.212Z,3.07
2019-02-20T08:50:35.714Z,3.10
2019-02-20T08:53:06.328Z,3.20
2019-02-20T08:55:36.766Z,2.97
2019-02-20T08:58:07.599Z,2.97
2019-02-20T09:00:38.106Z,2.93
2019-02-20T09:03:08.607Z,3.33
2019-02-20T09:05:39.204Z,2.77
2019-02-20T09:08:09.719Z,3.30
2019-02-20T09:10:40.144Z,2.83
2019-02-20T09:13:10.650Z,2.50
2019-02-20T09:15:41.089Z,2.30
2019-02-20T09:18:11.521Z,2.90
2019-02-20T09:20:42.524Z,2.70
2019-02-20T09:23:13.008Z,2.47
2019-02-20T09:25:43.441Z,2.47
2019-02-20T09:28:13.853Z,2.60
2019-02-20T09:30:44.453Z,2.80
2019-02-20T09:33:14.893Z,2.50
2019-02-20T09:35:45.366Z,2.40
2019-02-20T09:38:15.807Z,2.50
2019-02-20T09:40:46.338Z,2.37
2019-02-20T09:43:16.922Z,2.40
2019-02-20T09:45:47.443Z,2.27
2019-02-20T09:48:17.961Z,2.50
2019-02-20T09:50:48.492Z,2.40
2019-02-20T09:53:19.191Z,2.80
2019-02-20T09:55:51.771Z,2.43
2019-02-20T09:58:21.842Z,2.43
2019-02-20T10:00:52.800Z,2.00
2019-02-20T10:03:23.287Z,2.17
2019-02-20T10:05:53.741Z,2.50
2019-02-20T10:08:24.222Z,2.40
2019-02-20T10:10:54.705Z,2.40
2019-02-20T10:13:25.241Z,2.20
2019-02-20T10:15:55.697Z,2.63
2019-02-20T10:18:26.188Z,2.70
2019-02-20T10:20:56.990Z,2.53
2019-02-20T10:23:27.536Z,2.40
2019-02-20T10:26:00.778Z,2.60
2019-02-20T10:28:30.288Z,2.07
2019-02-20T10:31:00.796Z,2.87
2019-02-20T10:33:32.882Z,2.60
2019-02-20T10:36:03.343Z,2.70
2019-02-20T10:38:33.833Z,2.90
2019-02-20T10:41:04.318Z,3.10
2019-02-20T10:43:34.838Z,2.90
2019-02-20T10:46:05.350Z,2.27
2019-02-20T10:48:35.836Z,2.43
2019-02-20T10:51:06.423Z,3.00
2019-02-20T10:53:37.327Z,2.40
2019-02-20T10:56:09.592Z,2.60
2019-02-20T10:58:40.051Z,2.63
2019-02-20T11:01:10.848Z,2.30
2019-02-20T11:03:41.416Z,2.67
2019-02-20T11:06:11.993Z,2.63
2019-02-20T11:08:42.519Z,3.00
2019-02-20T11:11:12.981Z,2.83
2019-02-20T11:13:43.457Z,2.70
2019-02-20T11:16:13.987Z,2.87
2019-02-20T11:18:44.473Z,2.60
2019-02-20T11:21:15.106Z,2.77
2019-02-20T11:23:45.691Z,2.90
2019-02-20T11:26:18.526Z,2.40
2019-02-20T11:28:48.399Z,3.20
2019-02-20T11:31:18.899Z,2.60
2019-02-20T11:33:49.387Z,2.70
2019-02-20T11:36:19.841Z,3.40
2019-02-20T11:38:50.348Z,2.93
2019-02-20T11:41:20.790Z,2.70
2019-02-20T11:43:51.240Z,3.00
2019-02-20T11:46:21.812Z,2.97
2019-02-20T11:48:52.284Z,2.83
2019-02-20T11:51:22.750Z,2.83
2019-02-20T11:53:53.240Z,3.10
2019-02-20T11:56:26.626Z,3.17
2019-02-20T11:58:55.931Z,2.50
2019-02-20T12:01:26.445Z,2.50
2019-02-20T12:03:56.981Z,2.70
2019-02-20T12:06:27.432Z,2.60
2019-02-20T12:08:57.897Z,2.40
2019-02-20T12:11:28.404Z,2.63
2019-02-20T12:13:58.933Z,2.50
2019-02-20T12:16:29.863Z,2.70
2019-02-20T12:19:00.340Z,3.13
2019-02-20T12:21:30.779Z,2.70
2019-02-20T12:24:01.317Z,3.00
2019-02-20T12:26:35.107Z,3.10
2019-02-20T12:29:03.976Z,2.80
2019-02-20T12:31:34.490Z,2.80
2019-02-20T12:34:04.891Z,3.13
2019-02-20T12:36:35.308Z,3.03
2019-02-20T12:39:05.818Z,3.10
2019-02-20T12:41:36.241Z,3.03
2019-02-20T12:44:06.756Z,3.10
2019-02-20T12:46:37.202Z,3.60
2019-02-20T12:49:07.618Z,2.97
2019-02-20T12:51:38.048Z,3.40
2019-02-20T12:54:08.581Z,3.20
2019-02-20T12:56:43.863Z,3.40
2019-02-20T12:59:11.326Z,3.43
2019-02-20T13:01:41.763Z,3.63
2019-02-20T13:04:12.507Z,3.30
2019-02-20T13:50:59.755Z,3.73
2019-02-20T13:53:33.703Z,3.47
2019-02-20T13:56:04.297Z,3.07
2019-02-20T13:58:35.524Z,3.63
2019-02-20T14:01:12.756Z,2.80
2019-02-20T14:03:43.227Z,2.90
2019-02-20T14:06:15.082Z,2.47
2019-02-20T14:08:45.637Z,2.90
2019-02-20T14:11:16.401Z,3.63
2019-02-20T14:13:46.882Z,2.50
2019-02-20T14:16:17.300Z,2.40
2019-02-20T14:18:47.747Z,2.70
2019-02-20T14:21:20.938Z,2.77
2019-02-20T14:23:51.779Z,2.53
2019-02-20T14:26:22.341Z,3.30
2019-02-20T14:28:53.038Z,3.07
2019-02-20T14:31:23.475Z,2.77
2019-02-20T14:33:54.198Z,2.90
2019-02-20T14:36:24.664Z,2.97
2019-02-20T14:38:55.519Z,3.17
2019-02-20T14:41:27.117Z,2.77
2019-02-20T14:43:57.794Z,2.80
2019-02-20T14:46:28.555Z,4.10
2019-02-20T14:48:58.998Z,3.23
2019-02-20T14:51:29.701Z,3.77
2019-02-20T14:54:01.365Z,3.27
2019-02-20T14:56:32.100Z,3.50
2019-02-20T14:59:02.547Z,3.70
2019-02-20T15:01:33.309Z,4.10
2019-02-20T15:04:04.019Z,4.13
2019-02-20T15:06:35.083Z,4.20
2019-02-20T15:09:06.625Z,4.10
2019-02-20T15:11:37.090Z,4.57
2019-02-20T15:14:07.870Z,4.83
2019-02-20T15:16:38.623Z,4.23
2019-02-20T15:19:09.316Z,4.63
2019-02-20T15:21:39.852Z,4.80
2019-02-20T15:24:10.563Z,4.87
2019-02-20T15:26:41.248Z,4.90
2019-02-20T15:29:11.993Z,24.67
2019-02-20T15:31:42.859Z,4.50
2019-02-20T15:34:15.305Z,17.53
2019-02-20T15:36:45.780Z,4.30
2019-02-20T15:39:16.547Z,4.13
2019-02-20T15:41:47.274Z,3.93
2019-02-20T15:44:18.003Z,3.80
2019-02-20T15:46:49.018Z,4.30
2019-02-20T15:49:19.443Z,4.80
2019-02-20T15:51:49.980Z,4.10
2019-02-20T15:54:20.694Z,4.50
2019-02-20T15:56:52.934Z,4.37
2019-02-20T15:59:23.665Z,3.80
2019-02-20T16:01:54.370Z,4.30
2019-02-20T16:04:25.076Z,3.97
2019-02-20T16:06:55.580Z,4.27
2019-02-20T16:09:26.284Z,3.93
2019-02-20T16:11:57.041Z,3.80
2019-02-20T16:14:28.070Z,4.00
2019-02-20T16:16:58.779Z,3.80
2019-02-20T16:19:29.784Z,3.73
2019-02-20T16:22:00.509Z,4.03
2019-02-20T16:24:31.187Z,4.60
2019-02-20T16:27:01.893Z,3.83
2019-02-20T16:29:32.907Z,4.30
2019-02-20T16:32:03.516Z,4.30
2019-02-20T16:34:35.861Z,4.07
2019-02-20T16:37:06.960Z,4.10
2019-02-20T16:39:37.634Z,4.33
2019-02-20T16:42:08.752Z,4.30
2019-02-20T16:44:39.587Z,4.03
2019-02-20T16:47:10.319Z,5.10
2019-02-20T16:49:44.840Z,5.10
2019-02-20T16:52:15.615Z,4.90
2019-02-20T16:54:46.341Z,4.37
2019-02-20T16:57:19.016Z,4.60
2019-02-20T17:02:47.181Z,5.20
2019-02-20T17:05:18.187Z,5.23
2019-02-20T17:07:49.380Z,4.40
2019-02-20T17:10:20.929Z,5.80
2019-02-20T17:12:51.922Z,5.73
2019-02-20T17:15:22.433Z,4.93
2019-02-20T17:17:53.270Z,4.97
2019-02-20T17:20:24.248Z,4.80
2019-02-20T17:22:55.064Z,6.37
2019-02-20T17:25:26.206Z,7.50
2019-02-20T17:28:05.306Z,4.90
2019-02-20T17:30:29.062Z,4.73
2019-02-20T17:32:59.857Z,5.43
2019-02-20T17:35:30.339Z,4.90
2019-02-20T17:38:00.883Z,7.77
2019-02-20T17:40:31.376Z,7.90
2019-02-20T17:43:02.164Z,6.33
2019-02-20T17:45:33.055Z,6.40
2019-02-20T17:48:03.511Z,5.83
2019-02-20T17:50:34.002Z,5.63
2019-02-20T17:53:04.462Z,6.43
2019-02-20T17:55:34.898Z,5.83
2019-02-20T17:58:14.537Z,5.73
2019-02-20T18:00:38.324Z,5.20
2019-02-20T18:03:09.169Z,5.60
2019-02-20T18:05:39.938Z,5.73
2019-02-20T18:08:10.696Z,6.10
2019-02-20T18:10:41.129Z,6.77
2019-02-20T18:13:11.630Z,5.73
2019-02-20T18:15:42.112Z,7.57
2019-02-20T18:18:12.570Z,6.77
2019-02-20T18:20:43.494Z,6.30
2019-02-20T18:23:13.927Z,6.67
2019-02-20T18:25:44.368Z,7.80
2019-02-20T18:28:23.910Z,6.50
2019-02-20T18:30:47.087Z,6.17
2019-02-20T18:33:17.539Z,6.63
2019-02-20T18:35:48.319Z,7.17
2019-02-20T18:38:18.749Z,7.13
2019-02-20T18:40:49.214Z,7.87
2019-02-20T18:43:19.664Z,8.10
2019-02-20T18:45:50.101Z,7.23
2019-02-20T18:48:20.553Z,8.57
2019-02-20T18:50:51.350Z,8.60
2019-02-20T18:53:22.088Z,7.93
2019-02-20T18:55:53.351Z,7.80
2019-02-20T18:58:33.496Z,9.40
2019-02-20T19:00:56.523Z,8.40
2019-02-20T19:03:27.036Z,8.77
2019-02-20T19:05:57.550Z,8.90
2019-02-20T19:08:49.803Z,8.83
2019-02-20T19:11:39.122Z,9.87
2019-02-20T19:14:29.108Z,8.20
2019-02-20T19:17:31.036Z,7.43
2019-02-20T19:20:35.286Z,8.07
2019-02-20T19:23:25.260Z,7.63
2019-02-20T19:26:27.193Z,8.23
2019-02-20T19:39:43.724Z,8.47
2019-02-20T19:42:47.479Z,9.00
2019-02-20T19:46:00.447Z,8.67
2019-02-20T19:49:13.907Z,7.57
2019-02-20T20:07:12.520Z,7.87
2019-02-20T20:10:05.941Z,7.83
2019-02-20T20:13:28.562Z,8.20
2019-02-20T20:16:23.979Z,8.60
2019-02-20T20:19:48.109Z,8.60
2019-02-20T20:23:15.631Z,8.17
2019-02-20T20:26:29.336Z,8.60
2019-02-20T20:33:31.799Z,8.43
2019-02-20T20:40:20.616Z,9.33
2019-02-20T20:55:42.307Z,10.73
2019-02-20T20:58:51.071Z,11.73
2019-02-20T21:01:43.317Z,11.47
2019-02-20T21:04:34.297Z,11.93
2019-02-20T21:07:35.578Z,12.73
2019-02-20T21:10:16.122Z,13.27
2019-02-20T21:13:11.536Z,13.23
2019-02-20T21:16:02.233Z,13.93
2019-02-20T21:19:02.945Z,13.70
2019-02-20T21:22:07.390Z,13.17
2019-02-20T21:25:15.179Z,13.70
2019-02-20T21:43:14.728Z,16.80
2019-02-20T21:46:09.012Z,16.50
2019-02-20T21:48:56.398Z,15.67
2019-02-20T21:51:37.108Z,16.90
